Terminal Aerodrome Forecast
Issued by NWS

Home | Current Version | Previous Version | Text Only | Print | Product List | Glossary On
Versions: 1 2 3 4 5 6 7 8 9 10 11 12 13 14 15 16 17 18 19 20 21 22 23 24
000
FTUS44 KHGX 312336
TAFCXO
TAF
KCXO 312336Z 0100/0124 13005KT P6SM OVC150
     FM010100 16005KT P6SM VCSH SCT035 BKN120
      TEMPO 0101/0103 -TSRA BKN035CB
     FM010400 VRB02KT 4SM BR BKN250
     FM011100 VRB03KT 3SM BR VCSH BKN025
     FM011700 13006KT P6SM VCTS BKN035CB=

USA.gov is the U.S. government's official web portal to all federal, state and local government web resources and services.